sensor_id;sensor_type;location;lat;lon;timestamp;P1;durP1;ratioP1;P2;durP2;ratioP2
70683;SDS011;58263;48.146;11.440;2023-06-10T00:01:47;5.53;;;4.45;;
70683;SDS011;58263;48.146;11.440;2023-06-10T00:04:13;5.40;;;4.63;;
70683;SDS011;58263;48.146;11.440;2023-06-10T00:06:40;5.93;;;4.95;;
70683;SDS011;58263;48.146;11.440;2023-06-10T00:09:06;7.10;;;5.45;;
70683;SDS011;58263;48.146;11.440;2023-06-10T00:11:36;5.80;;;4.75;;
70683;SDS011;58263;48.146;11.440;2023-06-10T00:14:04;7.20;;;4.93;;
70683;SDS011;58263;48.146;11.440;2023-06-10T00:16:29;8.90;;;5.15;;
70683;SDS011;58263;48.146;11.440;2023-06-10T00:18:55;5.10;;;4.43;;
70683;SDS011;58263;48.146;11.440;2023-06-10T00:21:29;5.50;;;4.85;;
70683;SDS011;58263;48.146;11.440;2023-06-10T00:24:05;6.53;;;4.78;;
70683;SDS011;58263;48.146;11.440;2023-06-10T00:26:37;6.63;;;4.70;;
70683;SDS011;58263;48.146;11.440;2023-06-10T00:29:03;6.22;;;4.53;;
70683;SDS011;58263;48.146;11.440;2023-06-10T00:31:28;6.97;;;4.32;;
70683;SDS011;58263;48.146;11.440;2023-06-10T00:33:53;5.57;;;4.50;;
70683;SDS011;58263;48.146;11.440;2023-06-10T00:36:19;5.15;;;4.03;;
70683;SDS011;58263;48.146;11.440;2023-06-10T00:38:44;6.03;;;4.43;;
70683;SDS011;58263;48.146;11.440;2023-06-10T00:41:10;5.40;;;4.20;;
70683;SDS011;58263;48.146;11.440;2023-06-10T00:43:35;5.00;;;4.50;;
70683;SDS011;58263;48.146;11.440;2023-06-10T00:46:00;7.20;;;5.00;;
70683;SDS011;58263;48.146;11.440;2023-06-10T00:48:26;6.20;;;4.82;;
70683;SDS011;58263;48.146;11.440;2023-06-10T00:50:52;9.80;;;4.70;;
70683;SDS011;58263;48.146;11.440;2023-06-10T00:53:18;5.80;;;4.72;;
70683;SDS011;58263;48.146;11.440;2023-06-10T00:55:44;6.25;;;5.28;;
70683;SDS011;58263;48.146;11.440;2023-06-10T00:58:09;6.30;;;5.15;;
70683;SDS011;58263;48.146;11.440;2023-06-10T01:00:35;6.95;;;5.15;;
70683;SDS011;58263;48.146;11.440;2023-06-10T01:03:01;6.78;;;4.70;;
70683;SDS011;58263;48.146;11.440;2023-06-10T01:05:26;6.20;;;5.00;;
70683;SDS011;58263;48.146;11.440;2023-06-10T01:08:02;6.80;;;4.95;;
70683;SDS011;58263;48.146;11.440;2023-06-10T01:13:07;7.75;;;5.20;;
70683;SDS011;58263;48.146;11.440;2023-06-10T01:15:36;7.13;;;5.05;;
70683;SDS011;58263;48.146;11.440;2023-06-10T01:18:03;5.88;;;4.95;;
70683;SDS011;58263;48.146;11.440;2023-06-10T01:20:33;6.15;;;4.85;;
70683;SDS011;58263;48.146;11.440;2023-06-10T01:23:00;5.55;;;4.72;;
70683;SDS011;58263;48.146;11.440;2023-06-10T01:25:28;5.28;;;4.40;;
70683;SDS011;58263;48.146;11.440;2023-06-10T01:28:10;4.65;;;4.15;;
70683;SDS011;58263;48.146;11.440;2023-06-10T01:30:53;6.53;;;5.13;;
70683;SDS011;58263;48.146;11.440;2023-06-10T01:33:27;5.50;;;4.70;;
70683;SDS011;58263;48.146;11.440;2023-06-10T01:38:20;5.78;;;4.72;;
70683;SDS011;58263;48.146;11.440;2023-06-10T01:40:47;6.03;;;4.85;;
70683;SDS011;58263;48.146;11.440;2023-06-10T01:43:14;5.80;;;4.70;;
70683;SDS011;58263;48.146;11.440;2023-06-10T01:45:39;10.80;;;5.30;;
70683;SDS011;58263;48.146;11.440;2023-06-10T01:48:05;6.07;;;5.15;;
70683;SDS011;58263;48.146;11.440;2023-06-10T01:50:30;6.75;;;4.75;;
70683;SDS011;58263;48.146;11.440;2023-06-10T01:52:57;6.07;;;4.47;;
70683;SDS011;58263;48.146;11.440;2023-06-10T01:55:22;6.03;;;4.85;;
70683;SDS011;58263;48.146;11.440;2023-06-10T01:57:48;7.00;;;4.57;;
70683;SDS011;58263;48.146;11.440;2023-06-10T02:00:13;6.20;;;4.70;;
70683;SDS011;58263;48.146;11.440;2023-06-10T02:02:39;6.68;;;4.60;;
70683;SDS011;58263;48.146;11.440;2023-06-10T02:05:04;7.10;;;4.78;;
70683;SDS011;58263;48.146;11.440;2023-06-10T02:07:30;7.55;;;4.93;;
70683;SDS011;58263;48.146;11.440;2023-06-10T02:09:55;6.63;;;4.93;;
70683;SDS011;58263;48.146;11.440;2023-06-10T02:12:21;6.30;;;5.23;;
70683;SDS011;58263;48.146;11.440;2023-06-10T02:14:46;5.63;;;4.57;;
70683;SDS011;58263;48.146;11.440;2023-06-10T02:17:11;6.70;;;5.20;;
70683;SDS011;58263;48.146;11.440;2023-06-10T02:19:37;6.35;;;5.15;;
70683;SDS011;58263;48.146;11.440;2023-06-10T02:22:07;6.85;;;5.05;;
70683;SDS011;58263;48.146;11.440;2023-06-10T02:24:33;7.50;;;4.78;;
70683;SDS011;58263;48.146;11.440;2023-06-10T02:26:58;9.03;;;5.03;;
70683;SDS011;58263;48.146;11.440;2023-06-10T02:29:25;6.45;;;4.97;;
70683;SDS011;58263;48.146;11.440;2023-06-10T02:31:50;6.35;;;4.80;;
70683;SDS011;58263;48.146;11.440;2023-06-10T02:34:17;7.90;;;5.32;;
70683;SDS011;58263;48.146;11.440;2023-06-10T02:36:43;6.32;;;5.03;;
70683;SDS011;58263;48.146;11.440;2023-06-10T02:39:09;7.05;;;5.55;;
70683;SDS011;58263;48.146;11.440;2023-06-10T02:41:34;8.48;;;5.47;;
70683;SDS011;58263;48.146;11.440;2023-06-10T02:44:00;6.80;;;4.88;;
70683;SDS011;58263;48.146;11.440;2023-06-10T02:46:25;7.20;;;5.15;;
70683;SDS011;58263;48.146;11.440;2023-06-10T02:48:51;7.10;;;5.32;;
70683;SDS011;58263;48.146;11.440;2023-06-10T02:51:17;7.15;;;5.57;;
70683;SDS011;58263;48.146;11.440;2023-06-10T02:53:42;6.55;;;5.18;;
70683;SDS011;58263;48.146;11.440;2023-06-10T02:56:08;7.40;;;5.07;;
70683;SDS011;58263;48.146;11.440;2023-06-10T02:58:33;6.80;;;5.35;;
70683;SDS011;58263;48.146;11.440;2023-06-10T03:00:58;6.60;;;5.37;;
70683;SDS011;58263;48.146;11.440;2023-06-10T03:03:24;8.75;;;6.05;;
70683;SDS011;58263;48.146;11.440;2023-06-10T03:05:50;6.53;;;4.88;;
70683;SDS011;58263;48.146;11.440;2023-06-10T03:08:16;9.20;;;5.38;;
70683;SDS011;58263;48.146;11.440;2023-06-10T03:10:41;8.57;;;5.33;;
70683;SDS011;58263;48.146;11.440;2023-06-10T03:13:06;6.83;;;5.47;;
70683;SDS011;58263;48.146;11.440;2023-06-10T03:15:31;8.57;;;5.27;;
70683;SDS011;58263;48.146;11.440;2023-06-10T03:17:59;8.25;;;5.18;;
70683;SDS011;58263;48.146;11.440;2023-06-10T03:20:25;7.70;;;5.43;;
70683;SDS011;58263;48.146;11.440;2023-06-10T03:22:52;7.22;;;5.70;;
70683;SDS011;58263;48.146;11.440;2023-06-10T03:25:18;6.80;;;5.80;;
70683;SDS011;58263;48.146;11.440;2023-06-10T03:27:45;8.18;;;5.57;;
70683;SDS011;58263;48.146;11.440;2023-06-10T03:30:12;10.55;;;5.93;;
70683;SDS011;58263;48.146;11.440;2023-06-10T03:32:37;10.25;;;5.88;;
70683;SDS011;58263;48.146;11.440;2023-06-10T03:35:03;7.13;;;5.50;;
70683;SDS011;58263;48.146;11.440;2023-06-10T03:37:28;8.68;;;6.00;;
70683;SDS011;58263;48.146;11.440;2023-06-10T03:39:54;6.72;;;5.70;;
70683;SDS011;58263;48.146;11.440;2023-06-10T03:42:19;7.63;;;5.87;;
70683;SDS011;58263;48.146;11.440;2023-06-10T03:44:45;7.80;;;5.87;;
70683;SDS011;58263;48.146;11.440;2023-06-10T03:47:10;7.32;;;5.32;;
70683;SDS011;58263;48.146;11.440;2023-06-10T03:49:35;7.27;;;5.63;;
70683;SDS011;58263;48.146;11.440;2023-06-10T03:52:01;8.63;;;5.85;;
70683;SDS011;58263;48.146;11.440;2023-06-10T03:54:26;6.97;;;5.43;;
70683;SDS011;58263;48.146;11.440;2023-06-10T03:56:52;7.33;;;5.60;;
70683;SDS011;58263;48.146;11.440;2023-06-10T03:59:17;9.03;;;5.83;;
70683;SDS011;58263;48.146;11.440;2023-06-10T04:01:42;8.57;;;6.13;;
70683;SDS011;58263;48.146;11.440;2023-06-10T04:04:08;9.45;;;6.28;;
70683;SDS011;58263;48.146;11.440;2023-06-10T04:06:34;6.68;;;5.70;;
70683;SDS011;58263;48.146;11.440;2023-06-10T04:08:59;9.20;;;6.67;;
70683;SDS011;58263;48.146;11.440;2023-06-10T04:11:24;10.27;;;6.63;;
70683;SDS011;58263;48.146;11.440;2023-06-10T04:13:50;9.65;;;6.05;;
70683;SDS011;58263;48.146;11.440;2023-06-10T04:16:15;7.37;;;5.60;;
70683;SDS011;58263;48.146;11.440;2023-06-10T04:18:41;8.82;;;5.95;;
70683;SDS011;58263;48.146;11.440;2023-06-10T04:21:07;8.23;;;6.22;;
70683;SDS011;58263;48.146;11.440;2023-06-10T04:23:33;9.45;;;6.78;;
70683;SDS011;58263;48.146;11.440;2023-06-10T04:25:59;10.35;;;6.80;;
70683;SDS011;58263;48.146;11.440;2023-06-10T04:28:25;8.70;;;6.18;;
70683;SDS011;58263;48.146;11.440;2023-06-10T04:30:50;8.33;;;5.67;;
70683;SDS011;58263;48.146;11.440;2023-06-10T04:33:15;8.10;;;5.87;;
70683;SDS011;58263;48.146;11.440;2023-06-10T04:35:41;9.77;;;6.45;;
70683;SDS011;58263;48.146;11.440;2023-06-10T04:38:07;9.38;;;6.78;;
70683;SDS011;58263;48.146;11.440;2023-06-10T04:40:32;10.93;;;6.37;;
70683;SDS011;58263;48.146;11.440;2023-06-10T04:42:57;8.95;;;6.10;;
70683;SDS011;58263;48.146;11.440;2023-06-10T04:45:23;8.20;;;6.10;;
70683;SDS011;58263;48.146;11.440;2023-06-10T04:47:48;8.10;;;6.13;;
70683;SDS011;58263;48.146;11.440;2023-06-10T04:50:13;9.70;;;5.80;;
70683;SDS011;58263;48.146;11.440;2023-06-10T04:52:39;10.13;;;6.57;;
70683;SDS011;58263;48.146;11.440;2023-06-10T04:55:06;7.60;;;6.00;;
70683;SDS011;58263;48.146;11.440;2023-06-10T04:57:32;8.85;;;6.28;;
70683;SDS011;58263;48.146;11.440;2023-06-10T04:59:57;9.27;;;6.20;;
70683;SDS011;58263;48.146;11.440;2023-06-10T05:02:22;7.97;;;6.10;;
70683;SDS011;58263;48.146;11.440;2023-06-10T05:04:48;9.57;;;6.13;;
70683;SDS011;58263;48.146;11.440;2023-06-10T05:07:13;8.97;;;6.73;;
70683;SDS011;58263;48.146;11.440;2023-06-10T05:09:38;10.30;;;6.90;;
70683;SDS011;58263;48.146;11.440;2023-06-10T05:12:04;8.93;;;5.97;;
70683;SDS011;58263;48.146;11.440;2023-06-10T05:14:30;11.07;;;6.93;;
70683;SDS011;58263;48.146;11.440;2023-06-10T05:16:56;10.88;;;6.43;;
70683;SDS011;58263;48.146;11.440;2023-06-10T05:19:22;8.15;;;6.60;;
70683;SDS011;58263;48.146;11.440;2023-06-10T05:21:47;8.35;;;6.40;;
70683;SDS011;58263;48.146;11.440;2023-06-10T05:24:13;10.35;;;6.32;;
70683;SDS011;58263;48.146;11.440;2023-06-10T05:26:38;9.52;;;6.47;;
70683;SDS011;58263;48.146;11.440;2023-06-10T05:29:04;8.90;;;6.45;;
70683;SDS011;58263;48.146;11.440;2023-06-10T05:31:30;7.05;;;5.78;;
70683;SDS011;58263;48.146;11.440;2023-06-10T05:33:56;9.38;;;6.57;;
70683;SDS011;58263;48.146;11.440;2023-06-10T05:36:21;9.17;;;6.30;;
70683;SDS011;58263;48.146;11.440;2023-06-10T05:38:46;8.73;;;6.20;;
70683;SDS011;58263;48.146;11.440;2023-06-10T05:41:12;8.73;;;7.05;;
70683;SDS011;58263;48.146;11.440;2023-06-10T05:43:37;8.75;;;6.20;;
70683;SDS011;58263;48.146;11.440;2023-06-10T05:46:03;8.75;;;6.15;;
70683;SDS011;58263;48.146;11.440;2023-06-10T05:48:28;8.27;;;6.05;;
70683;SDS011;58263;48.146;11.440;2023-06-10T05:50:53;8.40;;;6.17;;
70683;SDS011;58263;48.146;11.440;2023-06-10T05:53:19;8.27;;;6.53;;
70683;SDS011;58263;48.146;11.440;2023-06-10T05:55:44;9.80;;;6.88;;
70683;SDS011;58263;48.146;11.440;2023-06-10T05:58:11;9.43;;;6.53;;
70683;SDS011;58263;48.146;11.440;2023-06-10T06:00:37;7.82;;;5.90;;
70683;SDS011;58263;48.146;11.440;2023-06-10T06:03:06;7.20;;;5.43;;
70683;SDS011;58263;48.146;11.440;2023-06-10T06:05:35;8.48;;;5.63;;
70683;SDS011;58263;48.146;11.440;2023-06-10T06:08:05;7.43;;;5.85;;
70683;SDS011;58263;48.146;11.440;2023-06-10T06:10:31;9.93;;;6.22;;
70683;SDS011;58263;48.146;11.440;2023-06-10T06:12:56;7.38;;;5.10;;
70683;SDS011;58263;48.146;11.440;2023-06-10T06:15:22;8.43;;;6.33;;
70683;SDS011;58263;48.146;11.440;2023-06-10T06:17:48;7.25;;;5.97;;
70683;SDS011;58263;48.146;11.440;2023-06-10T06:20:13;6.73;;;5.37;;
70683;SDS011;58263;48.146;11.440;2023-06-10T06:22:38;7.28;;;5.47;;
70683;SDS011;58263;48.146;11.440;2023-06-10T06:25:04;7.77;;;5.70;;
70683;SDS011;58263;48.146;11.440;2023-06-10T06:27:30;7.47;;;5.93;;
70683;SDS011;58263;48.146;11.440;2023-06-10T06:29:56;7.57;;;5.65;;
70683;SDS011;58263;48.146;11.440;2023-06-10T06:32:21;7.50;;;5.53;;
70683;SDS011;58263;48.146;11.440;2023-06-10T06:34:47;6.35;;;5.53;;
70683;SDS011;58263;48.146;11.440;2023-06-10T06:37:14;7.15;;;5.25;;
70683;SDS011;58263;48.146;11.440;2023-06-10T06:39:40;7.22;;;5.78;;
70683;SDS011;58263;48.146;11.440;2023-06-10T06:42:05;8.30;;;5.60;;
70683;SDS011;58263;48.146;11.440;2023-06-10T06:44:30;8.68;;;5.20;;
70683;SDS011;58263;48.146;11.440;2023-06-10T06:46:56;13.43;;;5.27;;
70683;SDS011;58263;48.146;11.440;2023-06-10T06:49:21;6.27;;;4.90;;
70683;SDS011;58263;48.146;11.440;2023-06-10T06:51:46;5.87;;;5.03;;
70683;SDS011;58263;48.146;11.440;2023-06-10T06:54:12;7.25;;;5.30;;
70683;SDS011;58263;48.146;11.440;2023-06-10T06:56:37;7.90;;;4.93;;
70683;SDS011;58263;48.146;11.440;2023-06-10T06:59:03;7.35;;;5.63;;
70683;SDS011;58263;48.146;11.440;2023-06-10T07:01:29;8.30;;;5.53;;
70683;SDS011;58263;48.146;11.440;2023-06-10T07:03:54;7.35;;;5.70;;
70683;SDS011;58263;48.146;11.440;2023-06-10T07:06:20;15.47;;;7.00;;
70683;SDS011;58263;48.146;11.440;2023-06-10T07:08:45;11.68;;;6.00;;
70683;SDS011;58263;48.146;11.440;2023-06-10T07:11:10;8.03;;;5.90;;
70683;SDS011;58263;48.146;11.440;2023-06-10T07:13:36;8.03;;;5.87;;
70683;SDS011;58263;48.146;11.440;2023-06-10T07:16:01;6.97;;;5.50;;
70683;SDS011;58263;48.146;11.440;2023-06-10T07:18:26;6.05;;;4.88;;
70683;SDS011;58263;48.146;11.440;2023-06-10T07:20:52;6.80;;;5.17;;
70683;SDS011;58263;48.146;11.440;2023-06-10T07:23:17;7.22;;;5.13;;
70683;SDS011;58263;48.146;11.440;2023-06-10T07:25:42;6.87;;;4.70;;
70683;SDS011;58263;48.146;11.440;2023-06-10T07:28:08;6.90;;;5.07;;
70683;SDS011;58263;48.146;11.440;2023-06-10T07:30:33;5.78;;;4.45;;
70683;SDS011;58263;48.146;11.440;2023-06-10T07:32:58;7.28;;;4.68;;
70683;SDS011;58263;48.146;11.440;2023-06-10T07:35:24;6.22;;;4.65;;
70683;SDS011;58263;48.146;11.440;2023-06-10T07:37:49;5.35;;;4.40;;
70683;SDS011;58263;48.146;11.440;2023-06-10T07:40:15;7.88;;;4.90;;
70683;SDS011;58263;48.146;11.440;2023-06-10T07:42:40;6.63;;;4.60;;
70683;SDS011;58263;48.146;11.440;2023-06-10T07:45:07;6.05;;;4.50;;
70683;SDS011;58263;48.146;11.440;2023-06-10T07:47:32;4.75;;;3.85;;
70683;SDS011;58263;48.146;11.440;2023-06-10T07:49:59;4.93;;;3.95;;
70683;SDS011;58263;48.146;11.440;2023-06-10T07:52:24;4.55;;;3.78;;
70683;SDS011;58263;48.146;11.440;2023-06-10T07:54:50;4.43;;;3.78;;
70683;SDS011;58263;48.146;11.440;2023-06-10T07:57:16;5.05;;;3.38;;
70683;SDS011;58263;48.146;11.440;2023-06-10T07:59:42;7.75;;;4.22;;
70683;SDS011;58263;48.146;11.440;2023-06-10T08:02:09;4.40;;;3.80;;
70683;SDS011;58263;48.146;11.440;2023-06-10T08:04:34;4.88;;;4.15;;
70683;SDS011;58263;48.146;11.440;2023-06-10T08:07:00;5.63;;;3.65;;
70683;SDS011;58263;48.146;11.440;2023-06-10T08:09:25;4.30;;;3.72;;
70683;SDS011;58263;48.146;11.440;2023-06-10T08:11:51;5.57;;;4.38;;
70683;SDS011;58263;48.146;11.440;2023-06-10T08:14:16;4.45;;;3.75;;
70683;SDS011;58263;48.146;11.440;2023-06-10T08:16:42;3.92;;;3.25;;
70683;SDS011;58263;48.146;11.440;2023-06-10T08:19:08;4.47;;;2.88;;
70683;SDS011;58263;48.146;11.440;2023-06-10T08:21:34;3.83;;;3.42;;
70683;SDS011;58263;48.146;11.440;2023-06-10T08:24:01;4.50;;;3.53;;
70683;SDS011;58263;48.146;11.440;2023-06-10T08:26:26;6.45;;;3.38;;
70683;SDS011;58263;48.146;11.440;2023-06-10T08:28:52;5.35;;;3.60;;
70683;SDS011;58263;48.146;11.440;2023-06-10T08:31:17;5.30;;;3.50;;
70683;SDS011;58263;48.146;11.440;2023-06-10T08:33:42;4.00;;;3.00;;
70683;SDS011;58263;48.146;11.440;2023-06-10T08:36:08;3.53;;;2.92;;
70683;SDS011;58263;48.146;11.440;2023-06-10T08:38:33;4.43;;;3.20;;
70683;SDS011;58263;48.146;11.440;2023-06-10T08:40:59;4.25;;;3.00;;
70683;SDS011;58263;48.146;11.440;2023-06-10T08:46:37;4.07;;;2.90;;
70683;SDS011;58263;48.146;11.440;2023-06-10T08:49:05;3.50;;;3.20;;
70683;SDS011;58263;48.146;11.440;2023-06-10T08:51:34;4.05;;;3.08;;
70683;SDS011;58263;48.146;11.440;2023-06-10T08:54:02;3.35;;;3.05;;
70683;SDS011;58263;48.146;11.440;2023-06-10T08:56:33;3.33;;;3.03;;
70683;SDS011;58263;48.146;11.440;2023-06-10T08:59:03;4.50;;;3.67;;
70683;SDS011;58263;48.146;11.440;2023-06-10T09:01:30;4.25;;;3.35;;
70683;SDS011;58263;48.146;11.440;2023-06-10T09:03:56;3.72;;;3.13;;
70683;SDS011;58263;48.146;11.440;2023-06-10T09:08:49;4.38;;;3.30;;
70683;SDS011;58263;48.146;11.440;2023-06-10T09:11:15;4.30;;;3.60;;
70683;SDS011;58263;48.146;11.440;2023-06-10T09:13:41;5.63;;;3.50;;
70683;SDS011;58263;48.146;11.440;2023-06-10T09:16:06;3.83;;;3.40;;
70683;SDS011;58263;48.146;11.440;2023-06-10T09:18:31;4.13;;;3.72;;
70683;SDS011;58263;48.146;11.440;2023-06-10T09:20:57;4.13;;;3.75;;
70683;SDS011;58263;48.146;11.440;2023-06-10T09:23:22;3.37;;;3.07;;
70683;SDS011;58263;48.146;11.440;2023-06-10T09:25:53;5.10;;;3.58;;
70683;SDS011;58263;48.146;11.440;2023-06-10T09:28:21;4.35;;;3.28;;
70683;SDS011;58263;48.146;11.440;2023-06-10T09:30:46;3.80;;;3.47;;
70683;SDS011;58263;48.146;11.440;2023-06-10T09:33:13;4.20;;;3.67;;
70683;SDS011;58263;48.146;11.440;2023-06-10T09:39:04;4.22;;;3.80;;
70683;SDS011;58263;48.146;11.440;2023-06-10T09:41:33;3.65;;;3.25;;
70683;SDS011;58263;48.146;11.440;2023-06-10T09:44:00;4.82;;;3.63;;
70683;SDS011;58263;48.146;11.440;2023-06-10T09:46:30;3.70;;;3.25;;
70683;SDS011;58263;48.146;11.440;2023-06-10T09:48:58;3.90;;;3.53;;
70683;SDS011;58263;48.146;11.440;2023-06-10T09:51:23;3.50;;;3.20;;
70683;SDS011;58263;48.146;11.440;2023-06-10T09:53:51;3.42;;;3.13;;
70683;SDS011;58263;48.146;11.440;2023-06-10T09:58:41;3.57;;;3.23;;
70683;SDS011;58263;48.146;11.440;2023-06-10T10:01:09;3.38;;;3.08;;
70683;SDS011;58263;48.146;11.440;2023-06-10T10:03:42;4.30;;;3.58;;
70683;SDS011;58263;48.146;11.440;2023-06-10T10:06:10;4.47;;;3.08;;
70683;SDS011;58263;48.146;11.440;2023-06-10T10:08:36;3.67;;;3.35;;
70683;SDS011;58263;48.146;11.440;2023-06-10T10:11:01;3.77;;;3.43;;
70683;SDS011;58263;48.146;11.440;2023-06-10T10:13:27;3.97;;;3.58;;
70683;SDS011;58263;48.146;11.440;2023-06-10T10:15:54;3.47;;;3.08;;
70683;SDS011;58263;48.146;11.440;2023-06-10T10:18:24;3.50;;;3.20;;
70683;SDS011;58263;48.146;11.440;2023-06-10T10:20:55;3.67;;;3.30;;
70683;SDS011;58263;48.146;11.440;2023-06-10T10:23:25;4.25;;;3.47;;
70683;SDS011;58263;48.146;11.440;2023-06-10T10:25:54;4.28;;;3.30;;
70683;SDS011;58263;48.146;11.440;2023-06-10T10:28:24;3.50;;;3.15;;
70683;SDS011;58263;48.146;11.440;2023-06-10T10:30:54;4.00;;;3.13;;
70683;SDS011;58263;48.146;11.440;2023-06-10T10:33:44;3.50;;;3.20;;
70683;SDS011;58263;48.146;11.440;2023-06-10T10:36:16;3.30;;;3.00;;
70683;SDS011;58263;48.146;11.440;2023-06-10T10:38:43;3.60;;;3.30;;
70683;SDS011;58263;48.146;11.440;2023-06-10T10:41:12;5.00;;;3.45;;
70683;SDS011;58263;48.146;11.440;2023-06-10T10:43:39;3.40;;;3.10;;
70683;SDS011;58263;48.146;11.440;2023-06-10T10:46:12;3.40;;;3.10;;
70683;SDS011;58263;48.146;11.440;2023-06-10T10:48:39;4.13;;;2.88;;
70683;SDS011;58263;48.146;11.440;2023-06-10T10:51:06;2.85;;;2.65;;
70683;SDS011;58263;48.146;11.440;2023-06-10T10:53:31;3.58;;;2.90;;
70683;SDS011;58263;48.146;11.440;2023-06-10T10:58:33;3.30;;;3.03;;
70683;SDS011;58263;48.146;11.440;2023-06-10T11:00:59;3.20;;;3.00;;
70683;SDS011;58263;48.146;11.440;2023-06-10T11:03:28;3.10;;;2.80;;
70683;SDS011;58263;48.146;11.440;2023-06-10T11:05:58;3.38;;;2.90;;
70683;SDS011;58263;48.146;11.440;2023-06-10T11:08:45;3.00;;;2.80;;
70683;SDS011;58263;48.146;11.440;2023-06-10T11:14:13;3.63;;;2.83;;
70683;SDS011;58263;48.146;11.440;2023-06-10T11:16:53;3.97;;;2.97;;
70683;SDS011;58263;48.146;11.440;2023-06-10T11:19:31;3.05;;;2.85;;
70683;SDS011;58263;48.146;11.440;2023-06-10T11:22:02;3.20;;;2.80;;
70683;SDS011;58263;48.146;11.440;2023-06-10T11:24:32;2.97;;;2.78;;
70683;SDS011;58263;48.146;11.440;2023-06-10T11:30:28;3.10;;;2.90;;
70683;SDS011;58263;48.146;11.440;2023-06-10T11:32:37;3.10;;;2.90;;
70683;SDS011;58263;48.146;11.440;2023-06-10T11:35:04;4.97;;;3.05;;
70683;SDS011;58263;48.146;11.440;2023-06-10T11:37:31;3.03;;;2.80;;
70683;SDS011;58263;48.146;11.440;2023-06-10T11:39:56;3.13;;;2.92;;
70683;SDS011;58263;48.146;11.440;2023-06-10T11:42:23;3.20;;;2.85;;
70683;SDS011;58263;48.146;11.440;2023-06-10T11:44:49;3.17;;;2.97;;
70683;SDS011;58263;48.146;11.440;2023-06-10T11:47:16;3.10;;;2.90;;
70683;SDS011;58263;48.146;11.440;2023-06-10T11:49:42;3.03;;;2.83;;
70683;SDS011;58263;48.146;11.440;2023-06-10T11:52:07;3.20;;;3.00;;
70683;SDS011;58263;48.146;11.440;2023-06-10T11:54:32;2.80;;;2.60;;
70683;SDS011;58263;48.146;11.440;2023-06-10T11:56:58;2.97;;;2.70;;
70683;SDS011;58263;48.146;11.440;2023-06-10T11:59:28;3.17;;;2.97;;
70683;SDS011;58263;48.146;11.440;2023-06-10T12:01:54;3.45;;;3.10;;
70683;SDS011;58263;48.146;11.440;2023-06-10T12:04:20;3.13;;;2.92;;
70683;SDS011;58263;48.146;11.440;2023-06-10T12:06:50;3.00;;;2.80;;
70683;SDS011;58263;48.146;11.440;2023-06-10T12:09:21;3.35;;;3.08;;
70683;SDS011;58263;48.146;11.440;2023-06-10T12:12:08;2.80;;;2.60;;
70683;SDS011;58263;48.146;11.440;2023-06-10T12:14:51;2.63;;;2.53;;
70683;SDS011;58263;48.146;11.440;2023-06-10T12:19:48;2.58;;;2.47;;
70683;SDS011;58263;48.146;11.440;2023-06-10T12:22:14;2.97;;;2.63;;
70683;SDS011;58263;48.146;11.440;2023-06-10T12:24:58;3.25;;;2.83;;
70683;SDS011;58263;48.146;11.440;2023-06-10T12:27:25;2.80;;;2.60;;
70683;SDS011;58263;48.146;11.440;2023-06-10T12:29:51;2.60;;;2.40;;
70683;SDS011;58263;48.146;11.440;2023-06-10T12:32:18;2.80;;;2.60;;
70683;SDS011;58263;48.146;11.440;2023-06-10T12:34:45;2.70;;;2.50;;
70683;SDS011;58263;48.146;11.440;2023-06-10T12:37:11;3.30;;;3.10;;
70683;SDS011;58263;48.146;11.440;2023-06-10T12:39:40;2.67;;;2.40;;
70683;SDS011;58263;48.146;11.440;2023-06-10T12:42:06;4.60;;;2.65;;
70683;SDS011;58263;48.146;11.440;2023-06-10T12:44:35;11.98;;;3.35;;
70683;SDS011;58263;48.146;11.440;2023-06-10T12:47:10;5.07;;;3.03;;
70683;SDS011;58263;48.146;11.440;2023-06-10T12:49:37;8.23;;;3.00;;
70683;SDS011;58263;48.146;11.440;2023-06-10T12:52:03;4.85;;;3.13;;
70683;SDS011;58263;48.146;11.440;2023-06-10T12:54:29;3.28;;;2.65;;
70683;SDS011;58263;48.146;11.440;2023-06-10T12:56:55;2.90;;;2.70;;
70683;SDS011;58263;48.146;11.440;2023-06-10T12:59:20;2.92;;;2.72;;
70683;SDS011;58263;48.146;11.440;2023-06-10T13:01:51;4.33;;;2.70;;
70683;SDS011;58263;48.146;11.440;2023-06-10T13:04:17;2.95;;;2.70;;
70683;SDS011;58263;48.146;11.440;2023-06-10T13:06:43;3.42;;;2.63;;
70683;SDS011;58263;48.146;11.440;2023-06-10T13:09:08;2.42;;;2.28;;
70683;SDS011;58263;48.146;11.440;2023-06-10T13:11:34;2.67;;;2.47;;
70683;SDS011;58263;48.146;11.440;2023-06-10T13:14:00;2.80;;;2.60;;
70683;SDS011;58263;48.146;11.440;2023-06-10T13:16:26;3.42;;;2.35;;
70683;SDS011;58263;48.146;11.440;2023-06-10T13:18:53;2.75;;;2.55;;
70683;SDS011;58263;48.146;11.440;2023-06-10T13:21:18;2.28;;;2.13;;
70683;SDS011;58263;48.146;11.440;2023-06-10T13:23:44;2.80;;;2.60;;
70683;SDS011;58263;48.146;11.440;2023-06-10T13:28:36;2.80;;;2.60;;
70683;SDS011;58263;48.146;11.440;2023-06-10T13:31:01;2.80;;;2.60;;
70683;SDS011;58263;48.146;11.440;2023-06-10T13:33:26;4.23;;;3.23;;
70683;SDS011;58263;48.146;11.440;2023-06-10T13:35:52;3.67;;;2.83;;
70683;SDS011;58263;48.146;11.440;2023-06-10T13:38:17;3.33;;;3.03;;
70683;SDS011;58263;48.146;11.440;2023-06-10T13:40:42;3.10;;;2.83;;
70683;SDS011;58263;48.146;11.440;2023-06-10T13:43:08;4.27;;;3.10;;
70683;SDS011;58263;48.146;11.440;2023-06-10T13:45:34;3.55;;;3.25;;
70683;SDS011;58263;48.146;11.440;2023-06-10T13:47:59;4.60;;;3.13;;
70683;SDS011;58263;48.146;11.440;2023-06-10T13:50:26;4.75;;;2.80;;
70683;SDS011;58263;48.146;11.440;2023-06-10T13:52:51;2.92;;;2.72;;
70683;SDS011;58263;48.146;11.440;2023-06-10T13:55:16;3.50;;;3.20;;
70683;SDS011;58263;48.146;11.440;2023-06-10T13:57:43;3.20;;;2.90;;
70683;SDS011;58263;48.146;11.440;2023-06-10T14:00:09;3.27;;;2.97;;
70683;SDS011;58263;48.146;11.440;2023-06-10T14:02:35;3.33;;;3.03;;
70683;SDS011;58263;48.146;11.440;2023-06-10T14:05:00;4.20;;;2.97;;
70683;SDS011;58263;48.146;11.440;2023-06-10T14:07:26;3.83;;;3.47;;
70683;SDS011;58263;48.146;11.440;2023-06-10T14:09:52;2.90;;;2.70;;
70683;SDS011;58263;48.146;11.440;2023-06-10T14:12:17;3.25;;;2.97;;
70683;SDS011;58263;48.146;11.440;2023-06-10T14:14:43;3.45;;;3.15;;
70683;SDS011;58263;48.146;11.440;2023-06-10T14:17:09;3.10;;;2.90;;
70683;SDS011;58263;48.146;11.440;2023-06-10T14:19:34;3.43;;;2.97;;
70683;SDS011;58263;48.146;11.440;2023-06-10T14:22:00;4.10;;;3.10;;
70683;SDS011;58263;48.146;11.440;2023-06-10T14:24:25;2.90;;;2.67;;
70683;SDS011;58263;48.146;11.440;2023-06-10T14:26:50;3.90;;;2.58;;
70683;SDS011;58263;48.146;11.440;2023-06-10T14:29:16;2.93;;;2.70;;
70683;SDS011;58263;48.146;11.440;2023-06-10T14:31:43;2.67;;;2.47;;
70683;SDS011;58263;48.146;11.440;2023-06-10T14:34:08;2.50;;;2.30;;
70683;SDS011;58263;48.146;11.440;2023-06-10T14:36:34;3.00;;;2.50;;
70683;SDS011;58263;48.146;11.440;2023-06-10T14:39:00;2.92;;;2.67;;
70683;SDS011;58263;48.146;11.440;2023-06-10T14:41:25;2.57;;;2.37;;
70683;SDS011;58263;48.146;11.440;2023-06-10T14:43:51;3.40;;;2.92;;
70683;SDS011;58263;48.146;11.440;2023-06-10T14:46:17;3.05;;;2.83;;
70683;SDS011;58263;48.146;11.440;2023-06-10T14:48:42;3.00;;;2.70;;
70683;SDS011;58263;48.146;11.440;2023-06-10T14:51:07;3.50;;;3.20;;
70683;SDS011;58263;48.146;11.440;2023-06-10T14:53:33;3.00;;;2.80;;
70683;SDS011;58263;48.146;11.440;2023-06-10T14:55:58;4.70;;;3.00;;
70683;SDS011;58263;48.146;11.440;2023-06-10T14:58:23;3.30;;;3.00;;
70683;SDS011;58263;48.146;11.440;2023-06-10T15:00:48;2.77;;;2.53;;